Time;durP1;ratioP1;P1;durP2;ratioP2;P2;SDS_P1;SDS_P2;PMS_P1;PMS_P2;Temp;Humidity;BMP_temperature;BMP_pressure;BME280_temperature;BME280_humidity;BME280_pressure;Samples;Min_cycle;Max_cycle;Signal;HPM_P1;HPM_P2
2021/07/08 00:01:45;;;;;;;17.30;11.23;;;22.10;99.90;;;;;;4927636;29;20180;-91
2021/07/08 00:04:13;;;;;;;17.20;10.63;;;22.00;99.90;;;;;;4910196;29;20665;-91
2021/07/08 00:06:38;;;;;;;11.77;10.57;;;22.00;99.90;;;;;;4909020;29;20631;-92
2021/07/08 00:09:06;;;;;;;13.18;9.85;;;21.90;99.90;;;;;;4910558;29;20192;-91
2021/07/08 00:11:32;;;;;;;12.23;10.10;;;;;;;;;;4920104;29;20177;-91
2021/07/08 00:13:59;;;;;;;11.32;9.85;;;21.80;99.90;;;;;;4902798;29;20551;-91
2021/07/08 00:16:25;;;;;;;13.73;11.10;;;21.70;99.90;;;;;;4902820;29;20259;-91
2021/07/08 00:18:54;;;;;;;13.82;10.93;;;21.80;99.90;;;;;;4902645;29;20221;-91
2021/07/08 00:21:21;;;;;;;13.25;9.93;;;21.70;99.90;;;;;;4903021;29;20220;-91
2021/07/08 00:23:49;;;;;;;14.88;10.30;;;21.60;99.90;;;;;;4902356;29;20599;-91
2021/07/08 00:26:16;;;;;;;13.52;11.07;;;21.10;99.90;;;;;;4919250;29;20259;-91
2021/07/08 00:28:43;;;;;;;12.50;10.18;;;21.60;99.90;;;;;;4901649;29;20193;-90
2021/07/08 00:31:09;;;;;;;16.80;11.20;;;21.30;99.90;;;;;;4902583;29;20235;-90
2021/07/08 00:33:35;;;;;;;15.73;10.40;;;;;;;;;;4902684;29;20212;-91
2021/07/08 00:36:01;;;;;;;16.08;10.63;;;;;;;;;;4902108;29;20195;-91
2021/07/08 00:38:27;;;;;;;17.55;11.20;;;21.60;99.90;;;;;;4902397;29;20208;-91
2021/07/08 00:40:53;;;;;;;19.02;11.18;;;21.50;99.90;;;;;;4901848;29;20638;-90
2021/07/08 00:43:19;;;;;;;14.27;10.48;;;21.30;99.90;;;;;;4902663;29;20538;-91
2021/07/08 00:45:45;;;;;;;15.95;10.75;;;21.20;99.90;;;;;;4902364;29;20181;-90
2021/07/08 00:48:11;;;;;;;22.33;13.30;;;20.80;99.90;;;;;;4886138;29;20251;-91
2021/07/08 00:50:46;;;;;;;14.07;11.18;;;21.20;99.90;;;;;;4902411;29;20556;-90
2021/07/08 00:53:17;;;;;;;15.40;11.00;;;20.50;99.90;;;;;;4886612;29;20242;-91
2021/07/08 00:55:46;;;;;;;14.00;10.93;;;21.00;99.90;;;;;;4902289;29;20291;-90
2021/07/08 00:58:15;;;;;;;16.48;11.27;;;21.10;99.90;;;;;;4918662;29;20187;-91
2021/07/08 01:00:42;;;;;;;17.13;11.52;;;;;;;;;;4901824;29;20705;-91
2021/07/08 01:03:20;;;;;;;18.67;11.73;;;21.10;99.90;;;;;;4901743;29;20212;-91
2021/07/08 01:05:49;;;;;;;18.20;11.55;;;21.10;99.90;;;;;;4901965;29;20184;-91
2021/07/08 01:08:15;;;;;;;16.98;11.77;;;21.10;99.90;;;;;;4901207;29;20192;-91
2021/07/08 01:10:43;;;;;;;18.15;12.02;;;21.00;99.90;;;;;;4901851;29;20185;-90
2021/07/08 01:13:09;;;;;;;12.30;10.68;;;;;;;;;;4901418;29;20185;-90
2021/07/08 01:15:35;;;;;;;14.57;11.10;;;21.00;99.90;;;;;;4901881;29;20192;-90
2021/07/08 01:18:01;;;;;;;22.90;12.27;;;;;;;;;;4901277;29;20281;-91
2021/07/08 01:20:30;;;;;;;18.80;12.88;;;21.00;99.90;;;;;;4918932;29;20177;-91
2021/07/08 01:22:59;;;;;;;15.60;11.43;;;23.80;99.90;;;;;;4911889;29;20215;-91
2021/07/08 01:25:37;;;;;;;15.55;11.82;;;20.90;99.90;;;;;;4912670;29;20518;-90
2021/07/08 01:28:05;;;;;;;17.98;11.60;;;21.10;99.90;;;;;;4910836;29;20177;-91
2021/07/08 01:30:32;;;;;;;21.05;12.50;;;20.90;99.90;;;;;;4910054;29;20188;-91
2021/07/08 01:32:59;;;;;;;17.40;11.95;;;20.80;99.90;;;;;;4903165;29;20199;-91
2021/07/08 01:35:27;;;;;;;17.90;12.50;;;20.80;99.90;;;;;;4904503;29;20260;-91
2021/07/08 01:37:53;;;;;;;20.40;11.93;;;20.80;99.90;;;;;;4903573;29;20176;-91
2021/07/08 01:40:19;;;;;;;17.02;12.15;;;20.80;99.90;;;;;;4901986;29;20744;-92
2021/07/08 01:42:46;;;;;;;16.58;11.40;;;21.00;99.90;;;;;;4920157;29;20181;-91
2021/07/08 01:45:15;;;;;;;16.42;11.77;;;21.00;99.90;;;;;;4902699;29;20183;-91
2021/07/08 01:47:43;;;;;;;13.18;11.65;;;21.00;99.90;;;;;;4919803;29;20251;-91
2021/07/08 01:50:13;;;;;;;18.75;12.00;;;21.00;99.90;;;;;;4919289;29;20187;-91
2021/07/08 01:52:39;;;;;;;21.13;11.20;;;19.20;99.90;;;;;;4902916;29;20232;-91
2021/07/08 01:55:05;;;;;;;18.90;12.15;;;20.80;99.90;;;;;;4918947;29;20212;-90
2021/07/08 01:57:31;;;;;;;13.75;11.77;;;;;;;;;;4902913;29;20192;-90
2021/07/08 01:59:57;;;;;;;15.18;12.23;;;20.80;99.90;;;;;;4919227;29;20209;-90
2021/07/08 02:02:25;;;;;;;17.25;12.05;;;21.20;99.90;;;;;;4919147;29;20188;-90
2021/07/08 02:04:51;;;;;;;20.02;12.52;;;;;;;;;;4903054;29;20180;-90
2021/07/08 02:07:18;;;;;;;19.42;12.07;;;;;;;;;;4905371;29;20204;-90
2021/07/08 02:09:43;;;;;;;19.65;13.15;;;20.70;99.90;;;;;;4916397;29;20228;-89
2021/07/08 02:12:10;;;;;;;17.38;13.32;;;20.70;99.90;;;;;;4924927;29;20200;-92
2021/07/08 02:14:36;;;;;;;19.50;12.48;;;20.60;99.90;;;;;;4925054;29;20262;-89
2021/07/08 02:17:03;;;;;;;16.83;13.18;;;20.70;99.90;;;;;;4916486;29;20200;-91
2021/07/08 02:19:29;;;;;;;26.15;13.23;;;20.60;99.90;;;;;;4915090;29;20212;-91
2021/07/08 02:21:55;;;;;;;19.05;11.45;;;21.00;99.90;;;;;;4916650;29;20184;-90
2021/07/08 02:24:20;;;;;;;19.67;12.80;;;20.60;99.90;;;;;;4912745;29;20187;-91
2021/07/08 02:26:46;;;;;;;21.05;12.35;;;;;;;;;;4886328;29;20207;-91
2021/07/08 02:29:13;;;;;;;22.05;12.65;;;20.50;99.90;;;;;;4900959;29;20185;-91
2021/07/08 02:31:39;;;;;;;22.40;12.98;;;20.40;99.90;;;;;;4902087;29;20248;-91
2021/07/08 02:34:05;;;;;;;20.45;13.02;;;20.50;99.90;;;;;;4902074;29;20710;-91
2021/07/08 02:36:34;;;;;;;19.05;13.35;;;20.50;99.90;;;;;;4918276;29;20275;-90
2021/07/08 02:39:00;;;;;;;18.02;13.32;;;20.20;99.90;;;;;;4900224;29;20633;-91
2021/07/08 02:41:26;;;;;;;18.13;13.63;;;;;;;;;;4900316;29;20181;-90
2021/07/08 02:43:52;;;;;;;20.50;13.38;;;20.40;99.90;;;;;;4900580;29;20184;-91
2021/07/08 02:46:18;;;;;;;25.85;12.90;;;;;;;;;;4917549;29;20691;-90
2021/07/08 02:48:44;;;;;;;20.42;13.02;;;20.40;99.90;;;;;;4900502;29;20240;-90
2021/07/08 02:51:10;;;;;;;16.35;12.45;;;;;;;;;;4901112;29;20180;-90
2021/07/08 02:53:36;;;;;;;22.30;13.73;;;20.40;99.90;;;;;;4904119;29;20248;-88
2021/07/08 02:56:02;;;;;;;20.25;13.02;;;;;;;;;;4888524;29;20181;-88
2021/07/08 02:58:28;;;;;;;26.38;13.65;;;20.20;99.90;;;;;;4903530;29;20223;-88
2021/07/08 03:00:54;;;;;;;17.13;12.88;;;17.90;99.90;;;;;;4888459;29;20188;-87
2021/07/08 03:03:20;;;;;;;28.35;13.25;;;;;;;;;;4903520;29;20713;-87
2021/07/08 03:05:45;;;;;;;26.58;14.05;;;20.50;99.90;;;;;;4903913;29;20180;-87
2021/07/08 03:08:12;;;;;;;20.25;14.02;;;;;;;;;;4888042;29;20184;-87
2021/07/08 03:10:38;;;;;;;17.98;13.05;;;20.60;99.90;;;;;;4904035;29;20334;-87
2021/07/08 03:13:04;;;;;;;18.38;12.82;;;20.60;99.90;;;;;;4903813;29;20642;-86
2021/07/08 03:15:30;;;;;;;18.10;12.95;;;20.60;99.90;;;;;;4920546;29;20196;-86
2021/07/08 03:17:57;;;;;;;28.63;14.32;;;20.60;99.90;;;;;;4903620;29;20172;-86
2021/07/08 03:20:26;;;;;;;21.85;13.38;;;20.10;99.90;;;;;;4887720;29;20712;-87
2021/07/08 03:22:52;;;;;;;19.58;13.10;;;20.60;99.90;;;;;;4903182;29;20235;-88
2021/07/08 03:25:20;;;;;;;17.65;13.65;;;20.70;99.90;;;;;;4903157;29;20188;-85
2021/07/08 03:27:45;;;;;;;18.25;13.25;;;20.70;99.90;;;;;;4920732;29;20185;-86
2021/07/08 03:30:14;;;;;;;15.85;13.10;;;20.80;99.90;;;;;;4920367;29;20185;-86
2021/07/08 03:32:41;;;;;;;20.50;13.52;;;20.80;99.90;;;;;;4903275;29;20264;-85
2021/07/08 03:35:08;;;;;;;23.50;12.98;;;20.90;99.90;;;;;;4903666;29;20283;-85
2021/07/08 03:37:35;;;;;;;20.92;12.85;;;20.90;99.90;;;;;;4903323;29;20189;-86
2021/07/08 03:40:01;;;;;;;21.33;14.13;;;21.00;99.90;;;;;;4920478;29;20226;-85
2021/07/08 03:42:27;;;;;;;24.75;13.10;;;21.00;99.90;;;;;;4903453;29;20255;-85
2021/07/08 03:44:54;;;;;;;21.38;13.20;;;21.00;99.90;;;;;;4903622;29;20622;-85
2021/07/08 03:47:20;;;;;;;27.90;13.27;;;21.10;99.90;;;;;;4887399;29;20323;-85
2021/07/08 03:49:45;;;;;;;21.98;12.07;;;21.10;99.90;;;;;;4920074;29;20271;-86
2021/07/08 03:52:11;;;;;;;18.27;13.13;;;21.20;99.90;;;;;;4919696;29;20622;-86
2021/07/08 03:54:37;;;;;;;17.85;12.65;;;21.20;99.90;;;;;;4902829;29;20635;-85
2021/07/08 03:57:03;;;;;;;20.05;12.80;;;21.20;99.90;;;;;;4887628;29;20192;-86
2021/07/08 03:59:28;;;;;;;19.83;12.65;;;21.30;99.90;;;;;;4887100;29;20571;-86
2021/07/08 04:01:54;;;;;;;19.90;12.02;;;21.40;99.90;;;;;;4903128;29;20267;-87
2021/07/08 04:04:20;;;;;;;22.00;12.77;;;21.40;99.90;;;;;;4901956;29;20180;-86
2021/07/08 04:06:46;;;;;;;18.02;12.68;;;21.40;99.90;;;;;;4919797;29;20180;-87
2021/07/08 04:09:12;;;;;;;27.95;12.88;;;21.60;99.90;;;;;;4902942;29;20701;-86
2021/07/08 04:11:37;;;;;;;15.80;11.45;;;21.60;99.90;;;;;;4886986;29;20761;-87
2021/07/08 04:14:03;;;;;;;19.25;11.32;;;21.70;99.90;;;;;;4887040;29;20185;-87
2021/07/08 04:16:29;;;;;;;20.10;11.77;;;21.80;99.90;;;;;;4902464;29;20236;-86
2021/07/08 04:18:55;;;;;;;18.73;11.23;;;21.90;99.90;;;;;;4872153;29;20298;-87
2021/07/08 04:21:20;;;;;;;19.30;12.10;;;22.00;99.90;;;;;;4890249;29;20655;-86
2021/07/08 04:23:46;;;;;;;17.70;12.13;;;22.00;99.90;;;;;;4902910;29;20181;-87
2021/07/08 04:26:11;;;;;;;22.63;11.27;;;22.00;99.90;;;;;;4919312;29;20181;-87
2021/07/08 04:28:38;;;;;;;19.48;12.02;;;22.10;99.90;;;;;;4918834;29;20354;-87
2021/07/08 04:31:04;;;;;;;18.15;10.75;;;22.10;99.90;;;;;;4902593;29;20217;-86
2021/07/08 04:33:29;;;;;;;17.55;10.68;;;22.20;99.90;;;;;;4918755;29;20228;-86
2021/07/08 04:35:55;;;;;;;18.27;10.52;;;21.70;99.90;;;;;;4887155;29;20192;-86
2021/07/08 04:38:22;;;;;;;18.83;11.70;;;22.30;99.90;;;;;;4901724;29;20191;-86
2021/07/08 04:40:48;;;;;;;12.95;10.50;;;22.40;99.90;;;;;;4886444;29;20189;-86
2021/07/08 04:43:14;;;;;;;15.98;10.70;;;22.50;99.90;;;;;;4919047;29;20235;-85
2021/07/08 04:45:39;;;;;;;18.60;9.93;;;22.50;99.90;;;;;;4918685;29;20192;-86
2021/07/08 04:48:07;;;;;;;14.95;10.68;;;22.60;99.90;;;;;;4901811;29;20296;-86
2021/07/08 04:50:34;;;;;;;20.83;11.10;;;22.60;99.90;;;;;;4901600;29;20523;-87
2021/07/08 04:53:00;;;;;;;16.75;10.35;;;22.70;99.90;;;;;;4902097;29;20184;-86
2021/07/08 04:55:26;;;;;;;19.20;10.57;;;22.90;99.90;;;;;;4901161;29;20181;-86
2021/07/08 04:57:54;;;;;;;14.85;11.05;;;23.00;99.90;;;;;;4902057;29;20208;-86
2021/07/08 05:00:21;;;;;;;15.15;10.20;;;23.10;99.90;;;;;;4918659;29;20212;-85
2021/07/08 05:02:51;;;;;;;12.43;10.15;;;23.10;99.90;;;;;;4918176;29;20184;-89
2021/07/08 05:05:17;;;;;;;16.67;10.27;;;23.20;99.90;;;;;;4886116;29;20717;-88
2021/07/08 05:07:43;;;;;;;12.40;9.93;;;23.30;99.90;;;;;;4918142;29;20239;-89
2021/07/08 05:10:11;;;;;;;15.30;9.25;;;23.30;99.90;;;;;;4901642;29;20181;-88
2021/07/08 05:12:37;;;;;;;14.05;8.88;;;23.10;99.90;;;;;;4918173;29;20185;-89
2021/07/08 05:15:07;;;;;;;15.63;8.88;;;23.40;99.90;;;;;;4917582;29;20537;-88
2021/07/08 05:17:34;;;;;;;18.38;9.70;;;23.40;99.90;;;;;;4901348;29;20181;-88
2021/07/08 05:19:59;;;;;;;11.07;8.93;;;23.50;99.90;;;;;;4886021;29;20332;-92
2021/07/08 05:22:25;;;;;;;15.80;9.65;;;23.60;99.90;;;;;;4917846;29;20216;-87
2021/07/08 05:24:51;;;;;;;12.18;8.02;;;23.70;99.90;;;;;;4901299;29;20183;-88
2021/07/08 05:27:17;;;;;;;10.65;8.30;;;23.80;99.90;;;;;;4885694;29;20184;-88
2021/07/08 05:29:44;;;;;;;9.80;8.05;;;23.90;99.90;;;;;;4917833;29;20183;-89
2021/07/08 05:32:10;;;;;;;12.55;8.55;;;24.00;99.90;;;;;;4886489;29;20320;-91
2021/07/08 05:34:36;;;;;;;10.43;8.27;;;;;;;;;;4901068;29;20614;-89
2021/07/08 05:37:02;;;;;;;16.38;7.93;;;24.10;99.90;;;;;;4917717;29;20184;-88
2021/07/08 05:39:28;;;;;;;10.57;7.22;;;24.20;99.90;;;;;;4917538;29;20291;-89
2021/07/08 05:41:54;;;;;;;11.93;7.43;;;;;;;;;;4900615;29;20267;-89
2021/07/08 05:44:20;;;;;;;10.85;7.85;;;24.40;99.90;;;;;;4900469;29;20248;-89
2021/07/08 05:46:45;;;;;;;13.65;7.60;;;24.40;99.90;;;;;;4900030;29;20189;-89
2021/07/08 05:49:13;;;;;;;9.88;7.40;;;24.60;99.90;;;;;;4917520;29;20180;-89
2021/07/08 05:51:39;;;;;;;9.82;7.57;;;24.70;99.90;;;;;;4900216;29;20267;-89
2021/07/08 05:54:05;;;;;;;16.17;8.05;;;23.60;99.90;;;;;;4900344;29;20723;-90
2021/07/08 05:56:30;;;;;;;9.32;7.40;;;25.00;99.90;;;;;;4900327;29;20657;-89
2021/07/08 05:58:57;;;;;;;15.02;7.68;;;;;;;;;;4884834;29;20209;-90
2021/07/08 06:01:22;;;;;;;14.32;8.07;;;24.90;99.90;;;;;;4923893;29;20188;-90
2021/07/08 06:03:49;;;;;;;12.63;7.28;;;24.90;99.90;;;;;;4916732;29;20662;-90
2021/07/08 06:06:16;;;;;;;17.17;8.15;;;25.00;99.90;;;;;;4900016;29;20193;-92
2021/07/08 06:08:42;;;;;;;13.98;7.93;;;;;;;;;;4917058;29;20642;-90
2021/07/08 06:11:09;;;;;;;11.88;7.43;;;;;;;;;;4899732;29;20638;-90
2021/07/08 06:13:35;;;;;;;14.55;7.50;;;;;;;;;;4899457;29;20227;-91
2021/07/08 06:16:01;;;;;;;17.55;7.65;;;;;;;;;;4899768;29;20268;-90
2021/07/08 06:18:27;;;;;;;14.07;7.18;;;;;;;;;;4916654;29;20179;-91
2021/07/08 06:20:54;;;;;;;13.68;7.20;;;;;;;;;;4899672;29;20192;-90
2021/07/08 06:23:21;;;;;;;16.55;7.82;;;;;;;;;;4899756;29;20188;-91
2021/07/08 06:25:47;;;;;;;9.18;6.93;;;25.60;99.90;;;;;;4915921;29;20706;-91
2021/07/08 06:28:14;;;;;;;13.68;7.43;;;25.60;99.90;;;;;;4916655;29;20180;-91
2021/07/08 06:30:41;;;;;;;8.95;7.05;;;25.90;99.90;;;;;;4899086;29;20216;-89
2021/07/08 06:33:06;;;;;;;12.50;6.45;;;25.90;99.90;;;;;;4883738;29;20714;-90
2021/07/08 06:35:33;;;;;;;9.88;6.43;;;;;;;;;;4916795;29;20204;-90
2021/07/08 06:37:59;;;;;;;8.80;7.18;;;;;;;;;;4899510;29;20184;-90
2021/07/08 06:40:25;;;;;;;15.25;6.80;;;;;;;;;;4899362;29;20686;-91
2021/07/08 06:42:51;;;;;;;8.60;6.07;;;26.10;99.90;;;;;;4898681;29;20181;-90
2021/07/08 06:45:17;;;;;;;9.48;6.53;;;26.10;99.90;;;;;;4890967;29;20187;-90
2021/07/08 06:47:50;;;;;;;10.63;6.40;;;26.30;99.90;;;;;;4898656;29;20280;-89
2021/07/08 06:50:17;;;;;;;10.10;6.55;;;26.40;99.90;;;;;;4894167;29;20178;-90
2021/07/08 06:52:44;;;;;;;15.18;6.68;;;;;;;;;;4898591;29;20232;-90
2021/07/08 06:55:10;;;;;;;11.00;6.25;;;26.40;99.90;;;;;;4898859;29;20186;-89
2021/07/08 06:57:40;;;;;;;9.95;6.95;;;26.50;99.90;;;;;;4916219;29;20637;-90
2021/07/08 07:00:06;;;;;;;9.52;6.03;;;26.40;99.90;;;;;;4900406;29;20201;-89
2021/07/08 07:02:32;;;;;;;9.52;6.28;;;26.90;99.90;;;;;;4899710;29;20542;-89
2021/07/08 07:04:58;;;;;;;11.02;6.32;;;;;;;;;;4883558;29;20191;-90
2021/07/08 07:07:24;;;;;;;9.73;6.28;;;;;;;;;;4898905;29;20657;-92
2021/07/08 07:09:50;;;;;;;9.15;5.93;;;;;;;;;;4898471;29;20220;-89
2021/07/08 07:12:16;;;;;;;10.30;6.30;;;;;;;;;;4899114;29;20267;-90
2021/07/08 07:14:42;;;;;;;10.57;6.22;;;27.00;99.90;;;;;;4898426;29;20328;-90
2021/07/08 07:17:08;;;;;;;8.32;5.68;;;27.00;99.90;;;;;;4899032;29;20328;-89
2021/07/08 07:19:33;;;;;;;11.23;6.45;;;27.20;99.90;;;;;;4916647;29;20217;-90
2021/07/08 07:22:01;;;;;;;8.52;5.90;;;27.10;99.90;;;;;;4899865;29;20267;-91
2021/07/08 07:24:27;;;;;;;9.10;5.53;;;;;;;;;;4917213;29;20268;-90
2021/07/08 07:26:55;;;;;;;10.73;5.57;;;27.20;99.90;;;;;;4917710;29;20631;-91
2021/07/08 07:29:24;;;;;;;10.88;5.60;;;;;;;;;;4900520;29;20201;-90
2021/07/08 07:31:50;;;;;;;6.35;5.75;;;;;;;;;;4901234;29;20176;-91
2021/07/08 07:34:16;;;;;;;8.52;5.85;;;;;;;;;;4885956;29;20227;-89
2021/07/08 07:36:42;;;;;;;6.80;6.03;;;;;;;;;;4901518;29;20186;-89
2021/07/08 07:39:08;;;;;;;7.68;6.05;;;;;;;;;;4901556;29;20233;-88
2021/07/08 07:41:34;;;;;;;9.32;5.70;;;;;;;;;;4902001;29;20528;-90
2021/07/08 07:44:00;;;;;;;9.18;6.45;;;27.70;99.90;;;;;;4918199;29;20385;-92
2021/07/08 07:46:29;;;;;;;11.00;5.93;;;;;;;;;;4903780;29;20790;-91
2021/07/08 07:48:58;;;;;;;6.22;5.63;;;27.70;99.90;;;;;;4905289;29;20264;-90
2021/07/08 07:51:31;;;;;;;8.02;5.85;;;;;;;;;;4906131;29;20180;-91
2021/07/08 07:53:59;;;;;;;7.03;5.60;;;27.80;99.90;;;;;;4906101;29;20618;-92
2021/07/08 07:56:24;;;;;;;7.82;6.18;;;28.40;99.90;;;;;;4906514;29;20188;-93
2021/07/08 07:59:01;;;;;;;12.00;5.70;;;28.10;99.90;;;;;;4908008;29;20220;-93
2021/07/08 08:01:27;;;;;;;9.20;5.63;;;;;;;;;;4907664;29;20247;-91
2021/07/08 08:03:54;;;;;;;7.63;5.25;;;;;;;;;;4907640;29;20641;-89
2021/07/08 08:09:05;;;;;;;11.18;5.47;;;28.10;99.90;;;;;;4934162;29;20228;-90
2021/07/08 08:11:30;;;;;;;6.97;5.70;;;28.20;99.90;;;;;;4914055;29;20252;-91
2021/07/08 08:13:56;;;;;;;7.43;5.75;;;28.10;99.90;;;;;;4904540;29;20652;-90
2021/07/08 08:16:22;;;;;;;6.40;4.95;;;28.30;99.90;;;;;;4906908;29;20204;-90
2021/07/08 08:18:47;;;;;;;9.07;5.28;;;28.10;99.90;;;;;;4921006;29;20237;-90
2021/07/08 08:21:13;;;;;;;8.27;6.20;;;;;;;;;;4908062;29;20184;-89
2021/07/08 08:23:40;;;;;;;8.25;5.47;;;;;;;;;;4903578;29;20187;-91
2021/07/08 08:26:05;;;;;;;11.50;6.15;;;28.40;99.90;;;;;;4903109;29;20184;-91
2021/07/08 08:28:31;;;;;;;7.03;5.55;;;;;;;;;;4895358;29;20520;-93
2021/07/08 08:30:57;;;;;;;10.45;5.40;;;28.60;99.90;;;;;;4904554;29;20272;-90
2021/07/08 08:33:23;;;;;;;6.65;5.55;;;;;;;;;;4905150;29;20621;-92
2021/07/08 08:35:50;;;;;;;6.80;4.68;;;;;;;;;;4908756;29;20181;-89
2021/07/08 08:38:16;;;;;;;7.38;5.18;;;;;;;;;;4907392;29;20575;-91
2021/07/08 08:40:42;;;;;;;6.45;5.20;;;;;;;;;;4909356;29;20199;-92
2021/07/08 08:43:08;;;;;;;8.52;4.65;;;28.90;99.90;;;;;;4910512;29;20267;-92
2021/07/08 08:45:34;;;;;;;11.00;5.15;;;28.90;99.90;;;;;;4909681;29;20218;-91
2021/07/08 08:48:05;;;;;;;18.63;5.15;;;29.10;99.90;;;;;;4901918;29;20229;-92
2021/07/08 08:50:36;;;;;;;6.28;4.80;;;29.10;99.90;;;;;;4901931;29;20211;-92
2021/07/08 08:53:04;;;;;;;9.02;4.88;;;29.10;99.90;;;;;;4901612;29;20180;-92
2021/07/08 08:55:33;;;;;;;12.32;5.20;;;;;;;;;;4901566;29;20192;-92
2021/07/08 08:58:02;;;;;;;5.55;5.05;;;29.30;99.90;;;;;;4900920;29;20183;-91
2021/07/08 09:00:28;;;;;;;12.68;4.88;;;;;;;;;;4918493;29;20205;-91
2021/07/08 09:03:01;;;;;;;7.45;5.57;;;29.30;99.90;;;;;;4919297;29;20217;-92
2021/07/08 09:05:27;;;;;;;6.80;5.40;;;;;;;;;;4902743;29;20192;-91
2021/07/08 09:08:23;;;;;;;9.93;5.28;;;29.50;99.90;;;;;;4902136;29;20271;-93
2021/07/08 09:11:02;;;;;;;6.85;5.38;;;29.30;99.90;;;;;;4901896;29;20271;-91
2021/07/08 09:13:49;;;;;;;10.93;5.47;;;29.40;99.90;;;;;;4901851;29;20613;-91
2021/07/08 09:16:22;;;;;;;6.97;5.60;;;29.50;99.90;;;;;;4900176;29;20188;-92
2021/07/08 09:19:04;;;;;;;9.75;6.13;;;29.60;99.90;;;;;;4901598;29;20752;-92
2021/07/08 09:21:32;;;;;;;9.20;5.15;;;29.50;99.90;;;;;;4918975;29;20172;-92
2021/07/08 09:24:04;;;;;;;7.43;5.05;;;29.50;99.90;;;;;;4901267;29;20192;-91
2021/07/08 09:26:31;;;;;;;9.15;5.50;;;;;;;;;;4901516;29;20841;-91
2021/07/08 09:29:27;;;;;;;10.02;5.45;;;29.60;99.90;;;;;;4901492;29;20196;-91
2021/07/08 09:32:12;;;;;;;15.15;6.07;;;26.90;99.90;;;;;;4898056;29;20192;-91
2021/07/08 09:35:00;;;;;;;15.45;5.93;;;29.80;99.90;;;;;;4918545;29;20650;-92
2021/07/08 09:37:28;;;;;;;9.60;5.50;;;30.00;99.90;;;;;;4906384;29;20191;-91
2021/07/08 09:39:56;;;;;;;11.85;5.47;;;29.90;99.90;;;;;;4905258;29;20209;-92
2021/07/08 09:42:44;;;;;;;12.25;6.13;;;29.90;99.90;;;;;;4919747;29;20220;-91
2021/07/08 09:45:13;;;;;;;13.68;5.93;;;30.10;99.90;;;;;;4900604;29;20657;-91
2021/07/08 09:47:43;;;;;;;7.25;5.35;;;29.90;99.90;;;;;;4900597;29;20280;-90
2021/07/08 09:50:12;;;;;;;16.52;5.65;;;31.00;99.90;;;;;;4917594;29;20256;-88
2021/07/08 09:52:46;;;;;;;15.10;5.10;;;;;;;;;;4902075;29;20564;-94
2021/07/08 09:55:16;;;;;;;11.95;5.65;;;30.20;99.90;;;;;;4902126;29;20224;-93
2021/07/08 09:57:47;;;;;;;9.00;5.78;;;30.30;99.90;;;;;;4901261;29;20267;-94
2021/07/08 10:00:19;;;;;;;9.10;5.50;;;30.50;99.90;;;;;;4901762;29;20255;-94
2021/07/08 10:02:48;;;;;;;19.23;5.95;;;30.20;99.90;;;;;;4903094;29;20219;-94
2021/07/08 10:05:15;;;;;;;7.55;4.80;;;30.40;99.90;;;;;;4900011;29;20244;-92
2021/07/08 10:07:42;;;;;;;9.38;4.75;;;30.50;99.90;;;;;;4921457;29;20189;-95
2021/07/08 10:10:09;;;;;;;8.35;4.60;;;31.90;99.90;;;;;;4903842;29;20184;-92
2021/07/08 10:12:36;;;;;;;9.38;4.63;;;31.20;99.90;;;;;;4900642;29;20180;-92
2021/07/08 10:15:09;;;;;;;9.43;4.40;;;30.70;99.90;;;;;;4902247;29;20184;-91
2021/07/08 10:17:36;;;;;;;6.78;4.13;;;30.70;99.90;;;;;;4902756;29;20276;-92
2021/07/08 10:20:09;;;;;;;4.65;3.70;;;30.80;99.90;;;;;;4903424;29;20215;-91
2021/07/08 10:22:37;;;;;;;5.85;3.80;;;;;;;;;;4902376;29;20216;-95
2021/07/08 10:25:05;;;;;;;9.20;4.35;;;30.90;99.90;;;;;;4903103;29;20183;-92
2021/07/08 10:27:36;;;;;;;8.02;4.82;;;31.00;99.90;;;;;;4919910;29;20841;-91
2021/07/08 10:30:03;;;;;;;5.93;4.82;;;31.10;99.90;;;;;;4887435;29;20268;-91
2021/07/08 10:32:30;;;;;;;15.52;4.93;;;31.20;99.90;;;;;;4896826;29;20188;-90
2021/07/08 10:35:01;;;;;;;7.38;4.13;;;34.00;99.90;;;;;;4889841;29;20204;-94
2021/07/08 10:37:28;;;;;;;5.82;4.18;;;;;;;;;;4895167;29;20186;-93
2021/07/08 10:39:55;;;;;;;5.07;3.70;;;31.00;99.90;;;;;;4904793;29;20244;-92
2021/07/08 10:42:47;;;;;;;11.55;5.35;;;31.20;99.90;;;;;;4887292;29;20235;-94
2021/07/08 10:45:22;;;;;;;7.53;3.92;;;31.10;99.90;;;;;;4906733;29;20689;-92
2021/07/08 10:48:19;;;;;;;9.18;3.63;;;31.50;99.90;;;;;;4896719;29;20238;-96
2021/07/08 10:50:46;;;;;;;8.77;4.13;;;30.30;99.90;;;;;;4908731;29;20189;-95
2021/07/08 10:53:27;;;;;;;9.00;4.07;;;31.70;99.90;;;;;;4905527;29;20291;-96
2021/07/08 10:56:36;;;;;;;7.10;4.00;;;28.80;99.90;;;;;;4903374;29;20181;-95
2021/07/08 10:59:14;;;;;;;6.63;4.03;;;31.20;99.90;;;;;;4926884;29;20208;-93
2021/07/08 11:05:55;;;;;;;6.50;3.80;;;31.70;99.90;;;;;;4821716;29;20183;-93
2021/07/08 11:09:00;;;;;;;6.13;3.53;;;31.30;99.90;;;;;;4907555;29;20177;-92
2021/07/08 11:11:26;;;;;;;4.82;3.65;;;;;;;;;;4865326;29;20642;-91
2021/07/08 11:14:08;;;;;;;6.50;4.07;;;31.60;99.90;;;;;;4904400;29;20187;-90
2021/07/08 11:16:47;;;;;;;5.32;3.78;;;31.40;99.90;;;;;;4905232;29;20626;-92
2021/07/08 11:19:34;;;;;;;8.88;3.80;;;31.60;99.90;;;;;;4899571;29;20212;-91
2021/07/08 11:22:13;;;;;;;7.68;3.92;;;34.30;99.90;;;;;;4904048;29;20183;-89
2021/07/08 11:24:41;;;;;;;8.73;4.38;;;;;;;;;;4921622;29;20248;-91
2021/07/08 11:27:11;;;;;;;7.07;3.95;;;31.80;99.90;;;;;;4903746;29;20177;-91
2021/07/08 11:29:55;;;;;;;4.47;3.50;;;31.90;99.90;;;;;;4902092;29;20184;-90
2021/07/08 11:32:37;;;;;;;6.43;3.70;;;31.70;99.10;;;;;;4917336;29;20437;-90
2021/07/08 11:35:25;;;;;;;6.28;4.05;;;31.70;98.70;;;;;;4902532;29;20559;-89
2021/07/08 11:37:56;;;;;;;5.28;3.50;;;31.60;99.70;;;;;;4898354;29;20634;-90
2021/07/08 11:40:23;;;;;;;7.75;3.97;;;31.90;99.90;;;;;;4894611;29;20205;-91
2021/07/08 11:42:50;;;;;;;10.40;3.55;;;31.70;99.40;;;;;;4918595;29;20236;-89
2021/07/08 11:45:22;;;;;;;7.88;3.72;;;31.80;99.90;;;;;;4899905;29;20177;-92
2021/07/08 11:47:57;;;;;;;5.00;3.45;;;31.70;98.40;;;;;;4894478;29;20733;-88
2021/07/08 11:50:34;;;;;;;6.13;3.67;;;31.70;97.80;;;;;;4898892;29;20187;-90
2021/07/08 11:53:14;;;;;;;11.30;3.30;;;34.30;99.00;;;;;;4898889;29;20517;-87
2021/07/08 11:55:52;;;;;;;5.78;3.90;;;31.90;97.50;;;;;;4898276;29;20208;-89
2021/07/08 11:58:23;;;;;;;5.45;3.65;;;31.80;98.00;;;;;;4897743;29;20184;-89
2021/07/08 12:00:50;;;;;;;13.93;6.85;;;31.90;97.50;;;;;;4898898;29;20292;-90
2021/07/08 12:03:23;;;;;;;5.40;3.70;;;31.90;98.20;;;;;;4899298;29;20185;-88
2021/07/08 12:06:09;;;;;;;7.22;3.50;;;31.80;98.80;;;;;;4899172;29;20181;-89
2021/07/08 12:08:42;;;;;;;4.78;3.33;;;31.90;99.00;;;;;;4899159;29;20631;-87
2021/07/08 12:11:17;;;;;;;5.20;3.60;;;31.80;97.50;;;;;;4898880;29;20205;-89
2021/07/08 12:13:57;;;;;;;8.52;3.60;;;31.70;98.40;;;;;;4897038;29;20263;-90
2021/07/08 12:16:32;;;;;;;3.35;3.05;;;33.10;97.10;;;;;;4897931;29;20185;-89
2021/07/08 12:19:00;;;;;;;4.53;3.40;;;31.50;97.60;;;;;;4897230;29;20300;-88
2021/07/08 12:21:32;;;;;;;5.43;3.30;;;31.50;98.40;;;;;;4897038;29;20290;-88
2021/07/08 12:24:01;;;;;;;4.57;3.33;;;31.70;99.50;;;;;;4897940;29;20200;-90
2021/07/08 12:26:27;;;;;;;4.97;3.20;;;;;;;;;;4896744;29;20185;-90
2021/07/08 12:29:13;;;;;;;7.60;3.05;;;31.80;94.80;;;;;;4899260;29;20659;-90
2021/07/08 12:32:00;;;;;;;4.10;3.30;;;31.30;95.20;;;;;;4897330;29;20281;-91
2021/07/08 12:34:38;;;;;;;4.82;3.40;;;30.90;95.30;;;;;;4898547;29;20180;-89
2021/07/08 12:37:30;;;;;;;9.23;3.90;;;31.50;96.00;;;;;;4899986;29;20173;-92
2021/07/08 12:40:28;;;;;;;8.15;3.55;;;31.60;96.60;;;;;;4897899;29;20248;-91
2021/07/08 12:43:04;;;;;;;8.52;3.20;;;31.60;95.10;;;;;;4896709;29;20177;-92
2021/07/08 12:45:30;;;;;;;4.55;3.65;;;31.70;96.50;;;;;;4897931;29;20267;-90
2021/07/08 12:47:58;;;;;;;9.02;3.78;;;31.60;96.00;;;;;;4910297;29;20654;-93
2021/07/08 12:50:37;;;;;;;8.43;3.65;;;31.60;96.60;;;;;;4902955;29;20181;-90
2021/07/08 12:53:15;;;;;;;6.32;3.10;;;30.70;95.60;;;;;;4914882;29;20659;-89
2021/07/08 12:55:52;;;;;;;7.75;3.78;;;31.50;95.70;;;;;;4932632;29;20180;-91
2021/07/08 12:58:23;;;;;;;6.93;3.28;;;31.40;95.90;;;;;;4900054;29;20187;-90
2021/07/08 13:00:55;;;;;;;5.22;3.22;;;31.60;95.80;;;;;;4920386;29;20255;-92
2021/07/08 13:03:24;;;;;;;4.43;3.40;;;31.50;95.70;;;;;;4888885;29;20304;-90
2021/07/08 13:05:54;;;;;;;6.45;3.92;;;31.50;96.10;;;;;;4920831;29;20268;-91
2021/07/08 13:08:22;;;;;;;7.78;3.58;;;31.50;95.20;;;;;;4903365;29;20552;-89
2021/07/08 13:10:53;;;;;;;9.18;3.75;;;31.40;95.80;;;;;;4902910;29;20184;-90
2021/07/08 13:13:34;;;;;;;9.50;4.20;;;31.40;96.60;;;;;;4900586;29;20177;-91
2021/07/08 13:16:00;;;;;;;6.05;3.38;;;;;;;;;;4899741;29;20184;-92